sensor_id;sensor_type;location;lat;lon;timestamp;P1;durP1;ratioP1;P2;durP2;ratioP2
2187;SDS011;1100;52.014;8.540;2022-09-13T00:01:28;5.87;;;2.97;;
2187;SDS011;1100;52.014;8.540;2022-09-13T00:03:54;5.67;;;2.80;;
2187;SDS011;1100;52.014;8.540;2022-09-13T00:06:19;6.40;;;2.70;;
2187;SDS011;1100;52.014;8.540;2022-09-13T00:08:46;5.80;;;2.60;;
2187;SDS011;1100;52.014;8.540;2022-09-13T00:11:16;6.00;;;2.70;;
2187;SDS011;1100;52.014;8.540;2022-09-13T00:13:44;6.20;;;2.80;;
2187;SDS011;1100;52.014;8.540;2022-09-13T00:16:10;5.93;;;2.80;;
2187;SDS011;1100;52.014;8.540;2022-09-13T00:18:41;6.10;;;3.03;;
2187;SDS011;1100;52.014;8.540;2022-09-13T00:21:11;6.67;;;2.63;;
2187;SDS011;1100;52.014;8.540;2022-09-13T00:23:38;6.33;;;2.80;;
2187;SDS011;1100;52.014;8.540;2022-09-13T00:26:09;7.50;;;3.10;;
2187;SDS011;1100;52.014;8.540;2022-09-13T00:28:37;5.97;;;2.83;;
2187;SDS011;1100;52.014;8.540;2022-09-13T00:31:03;6.82;;;2.90;;
2187;SDS011;1100;52.014;8.540;2022-09-13T00:33:31;5.95;;;2.78;;
2187;SDS011;1100;52.014;8.540;2022-09-13T00:35:57;6.53;;;3.00;;
2187;SDS011;1100;52.014;8.540;2022-09-13T00:38:22;5.78;;;2.85;;
2187;SDS011;1100;52.014;8.540;2022-09-13T00:40:48;6.17;;;3.00;;
2187;SDS011;1100;52.014;8.540;2022-09-13T00:43:39;5.60;;;2.57;;
2187;SDS011;1100;52.014;8.540;2022-09-13T00:46:07;5.32;;;2.75;;
2187;SDS011;1100;52.014;8.540;2022-09-13T00:48:32;6.88;;;2.63;;
2187;SDS011;1100;52.014;8.540;2022-09-13T00:51:00;6.35;;;2.95;;
2187;SDS011;1100;52.014;8.540;2022-09-13T00:53:27;7.03;;;2.77;;
2187;SDS011;1100;52.014;8.540;2022-09-13T00:55:56;6.82;;;2.70;;
2187;SDS011;1100;52.014;8.540;2022-09-13T00:58:30;5.78;;;3.00;;
2187;SDS011;1100;52.014;8.540;2022-09-13T01:01:01;6.10;;;2.97;;
2187;SDS011;1100;52.014;8.540;2022-09-13T01:03:29;6.82;;;3.15;;
2187;SDS011;1100;52.014;8.540;2022-09-13T01:05:59;5.53;;;2.80;;
2187;SDS011;1100;52.014;8.540;2022-09-13T01:08:29;5.95;;;2.70;;
2187;SDS011;1100;52.014;8.540;2022-09-13T01:10:56;6.38;;;3.40;;
2187;SDS011;1100;52.014;8.540;2022-09-13T01:13:25;6.93;;;2.72;;
2187;SDS011;1100;52.014;8.540;2022-09-13T01:15:52;6.00;;;2.83;;
2187;SDS011;1100;52.014;8.540;2022-09-13T01:18:18;6.70;;;3.10;;
2187;SDS011;1100;52.014;8.540;2022-09-13T01:32:11;5.97;;;3.03;;
2187;SDS011;1100;52.014;8.540;2022-09-13T01:45:59;7.13;;;3.08;;
2187;SDS011;1100;52.014;8.540;2022-09-13T01:51:28;5.97;;;2.73;;
2187;SDS011;1100;52.014;8.540;2022-09-13T01:54:02;7.00;;;3.15;;
2187;SDS011;1100;52.014;8.540;2022-09-13T02:02:22;6.15;;;2.75;;
2187;SDS011;1100;52.014;8.540;2022-09-13T02:04:53;6.30;;;2.60;;
2187;SDS011;1100;52.014;8.540;2022-09-13T02:07:34;6.70;;;2.55;;
2187;SDS011;1100;52.014;8.540;2022-09-13T02:10:26;5.45;;;2.72;;
2187;SDS011;1100;52.014;8.540;2022-09-13T02:12:57;6.93;;;2.92;;
2187;SDS011;1100;52.014;8.540;2022-09-13T02:15:36;6.63;;;2.90;;
2187;SDS011;1100;52.014;8.540;2022-09-13T02:18:09;6.00;;;2.57;;
2187;SDS011;1100;52.014;8.540;2022-09-13T02:20:40;6.22;;;2.70;;
2187;SDS011;1100;52.014;8.540;2022-09-13T02:23:12;5.38;;;2.63;;
2187;SDS011;1100;52.014;8.540;2022-09-13T02:25:40;8.18;;;3.00;;
2187;SDS011;1100;52.014;8.540;2022-09-13T02:28:10;5.93;;;2.72;;
2187;SDS011;1100;52.014;8.540;2022-09-13T02:30:40;5.53;;;2.77;;
2187;SDS011;1100;52.014;8.540;2022-09-13T02:33:14;5.10;;;2.50;;
2187;SDS011;1100;52.014;8.540;2022-09-13T02:38:19;6.68;;;2.70;;
2187;SDS011;1100;52.014;8.540;2022-09-13T02:40:55;5.10;;;2.80;;
2187;SDS011;1100;52.014;8.540;2022-09-13T02:43:34;5.80;;;2.90;;
2187;SDS011;1100;52.014;8.540;2022-09-13T02:48:51;5.30;;;2.58;;
2187;SDS011;1100;52.014;8.540;2022-09-13T02:51:26;6.15;;;2.90;;
2187;SDS011;1100;52.014;8.540;2022-09-13T02:56:31;6.20;;;2.80;;
2187;SDS011;1100;52.014;8.540;2022-09-13T02:59:15;5.90;;;2.80;;
2187;SDS011;1100;52.014;8.540;2022-09-13T03:01:44;6.33;;;2.97;;
2187;SDS011;1100;52.014;8.540;2022-09-13T03:04:14;5.03;;;2.38;;
2187;SDS011;1100;52.014;8.540;2022-09-13T03:06:40;5.70;;;2.55;;
2187;SDS011;1100;52.014;8.540;2022-09-13T03:09:06;7.03;;;2.97;;
2187;SDS011;1100;52.014;8.540;2022-09-13T03:11:53;5.30;;;2.80;;
2187;SDS011;1100;52.014;8.540;2022-09-13T03:18:00;5.75;;;2.78;;
2187;SDS011;1100;52.014;8.540;2022-09-13T03:20:40;5.78;;;2.70;;
2187;SDS011;1100;52.014;8.540;2022-09-13T03:34:38;6.80;;;2.65;;
2187;SDS011;1100;52.014;8.540;2022-09-13T03:37:12;5.93;;;2.50;;
2187;SDS011;1100;52.014;8.540;2022-09-13T03:42:31;5.95;;;2.40;;
2187;SDS011;1100;52.014;8.540;2022-09-13T03:44:57;5.45;;;2.67;;
2187;SDS011;1100;52.014;8.540;2022-09-13T03:47:25;6.00;;;2.88;;
2187;SDS011;1100;52.014;8.540;2022-09-13T03:49:53;4.63;;;1.92;;
2187;SDS011;1100;52.014;8.540;2022-09-13T03:52:20;7.77;;;2.53;;
2187;SDS011;1100;52.014;8.540;2022-09-13T03:54:45;5.32;;;2.65;;
2187;SDS011;1100;52.014;8.540;2022-09-13T03:57:18;5.20;;;2.23;;
2187;SDS011;1100;52.014;8.540;2022-09-13T03:59:55;6.28;;;2.83;;
2187;SDS011;1100;52.014;8.540;2022-09-13T04:02:22;7.53;;;2.67;;
2187;SDS011;1100;52.014;8.540;2022-09-13T04:04:48;6.13;;;2.72;;
2187;SDS011;1100;52.014;8.540;2022-09-13T04:07:15;7.40;;;3.00;;
2187;SDS011;1100;52.014;8.540;2022-09-13T04:09:50;5.45;;;2.70;;
2187;SDS011;1100;52.014;8.540;2022-09-13T04:12:16;5.33;;;2.73;;
2187;SDS011;1100;52.014;8.540;2022-09-13T04:14:42;6.30;;;3.00;;
2187;SDS011;1100;52.014;8.540;2022-09-13T04:17:08;6.05;;;2.75;;
2187;SDS011;1100;52.014;8.540;2022-09-13T04:19:34;6.18;;;2.60;;
2187;SDS011;1100;52.014;8.540;2022-09-13T04:21:59;5.73;;;2.73;;
2187;SDS011;1100;52.014;8.540;2022-09-13T04:24:25;8.47;;;3.50;;
2187;SDS011;1100;52.014;8.540;2022-09-13T04:26:52;6.38;;;2.90;;
2187;SDS011;1100;52.014;8.540;2022-09-13T04:29:18;5.87;;;2.40;;
2187;SDS011;1100;52.014;8.540;2022-09-13T04:31:45;5.50;;;2.60;;
2187;SDS011;1100;52.014;8.540;2022-09-13T04:34:10;6.60;;;2.70;;
2187;SDS011;1100;52.014;8.540;2022-09-13T04:36:36;5.23;;;2.80;;
2187;SDS011;1100;52.014;8.540;2022-09-13T04:39:02;6.40;;;3.05;;
2187;SDS011;1100;52.014;8.540;2022-09-13T04:41:27;6.97;;;2.80;;
2187;SDS011;1100;52.014;8.540;2022-09-13T04:43:53;6.87;;;3.37;;
2187;SDS011;1100;52.014;8.540;2022-09-13T04:46:18;7.00;;;3.28;;
2187;SDS011;1100;52.014;8.540;2022-09-13T04:48:50;8.40;;;3.77;;
2187;SDS011;1100;52.014;8.540;2022-09-13T04:51:16;6.97;;;2.67;;
2187;SDS011;1100;52.014;8.540;2022-09-13T04:53:45;7.60;;;2.77;;
2187;SDS011;1100;52.014;8.540;2022-09-13T04:56:10;6.53;;;2.88;;
2187;SDS011;1100;52.014;8.540;2022-09-13T04:58:38;5.43;;;2.60;;
2187;SDS011;1100;52.014;8.540;2022-09-13T05:01:04;6.65;;;2.63;;
2187;SDS011;1100;52.014;8.540;2022-09-13T05:03:32;6.15;;;2.53;;
2187;SDS011;1100;52.014;8.540;2022-09-13T05:06:05;6.87;;;2.70;;
2187;SDS011;1100;52.014;8.540;2022-09-13T05:08:35;7.40;;;2.75;;
2187;SDS011;1100;52.014;8.540;2022-09-13T05:11:02;6.10;;;2.75;;
2187;SDS011;1100;52.014;8.540;2022-09-13T05:13:28;6.57;;;2.97;;
2187;SDS011;1100;52.014;8.540;2022-09-13T05:15:57;5.53;;;2.70;;
2187;SDS011;1100;52.014;8.540;2022-09-13T05:18:31;6.05;;;2.65;;
2187;SDS011;1100;52.014;8.540;2022-09-13T05:20:58;5.93;;;3.30;;
2187;SDS011;1100;52.014;8.540;2022-09-13T05:23:25;6.53;;;2.97;;
2187;SDS011;1100;52.014;8.540;2022-09-13T05:25:52;7.05;;;2.70;;
2187;SDS011;1100;52.014;8.540;2022-09-13T05:28:18;7.83;;;3.23;;
2187;SDS011;1100;52.014;8.540;2022-09-13T05:30:52;7.88;;;3.10;;
2187;SDS011;1100;52.014;8.540;2022-09-13T05:33:18;8.05;;;2.97;;
2187;SDS011;1100;52.014;8.540;2022-09-13T05:35:43;10.70;;;3.10;;
2187;SDS011;1100;52.014;8.540;2022-09-13T05:38:09;6.13;;;2.93;;
2187;SDS011;1100;52.014;8.540;2022-09-13T05:40:34;7.47;;;3.10;;
2187;SDS011;1100;52.014;8.540;2022-09-13T05:42:59;9.70;;;3.83;;
2187;SDS011;1100;52.014;8.540;2022-09-13T05:45:24;6.27;;;2.70;;
2187;SDS011;1100;52.014;8.540;2022-09-13T05:47:50;6.07;;;2.80;;
2187;SDS011;1100;52.014;8.540;2022-09-13T05:50:16;6.90;;;3.33;;
2187;SDS011;1100;52.014;8.540;2022-09-13T05:52:41;6.73;;;3.03;;
2187;SDS011;1100;52.014;8.540;2022-09-13T05:55:07;6.63;;;3.00;;
2187;SDS011;1100;52.014;8.540;2022-09-13T05:57:33;8.27;;;3.30;;
2187;SDS011;1100;52.014;8.540;2022-09-13T06:00:00;7.22;;;3.00;;
2187;SDS011;1100;52.014;8.540;2022-09-13T06:02:26;6.88;;;3.00;;
2187;SDS011;1100;52.014;8.540;2022-09-13T06:04:51;6.73;;;2.93;;
2187;SDS011;1100;52.014;8.540;2022-09-13T06:07:16;6.63;;;2.83;;
2187;SDS011;1100;52.014;8.540;2022-09-13T06:09:41;6.93;;;3.27;;
2187;SDS011;1100;52.014;8.540;2022-09-13T06:12:07;6.10;;;2.77;;
2187;SDS011;1100;52.014;8.540;2022-09-13T06:14:32;6.67;;;2.60;;
2187;SDS011;1100;52.014;8.540;2022-09-13T06:16:57;9.53;;;3.10;;
2187;SDS011;1100;52.014;8.540;2022-09-13T06:19:22;8.10;;;3.70;;
2187;SDS011;1100;52.014;8.540;2022-09-13T06:21:48;6.93;;;2.90;;
2187;SDS011;1100;52.014;8.540;2022-09-13T06:24:13;8.30;;;3.17;;
2187;SDS011;1100;52.014;8.540;2022-09-13T06:26:38;6.80;;;2.72;;
2187;SDS011;1100;52.014;8.540;2022-09-13T06:29:04;7.80;;;3.20;;
2187;SDS011;1100;52.014;8.540;2022-09-13T06:31:29;6.43;;;3.00;;
2187;SDS011;1100;52.014;8.540;2022-09-13T06:33:56;6.73;;;3.20;;
2187;SDS011;1100;52.014;8.540;2022-09-13T06:36:23;7.60;;;3.58;;
2187;SDS011;1100;52.014;8.540;2022-09-13T06:38:48;8.30;;;3.50;;
2187;SDS011;1100;52.014;8.540;2022-09-13T06:41:15;7.03;;;3.00;;
2187;SDS011;1100;52.014;8.540;2022-09-13T06:43:45;8.95;;;2.90;;
2187;SDS011;1100;52.014;8.540;2022-09-13T06:46:12;7.28;;;3.40;;
2187;SDS011;1100;52.014;8.540;2022-09-13T06:48:40;7.27;;;3.20;;
2187;SDS011;1100;52.014;8.540;2022-09-13T06:51:08;9.05;;;3.15;;
2187;SDS011;1100;52.014;8.540;2022-09-13T06:53:38;7.03;;;3.35;;
2187;SDS011;1100;52.014;8.540;2022-09-13T06:56:06;7.95;;;3.65;;
2187;SDS011;1100;52.014;8.540;2022-09-13T06:58:34;9.05;;;3.53;;
2187;SDS011;1100;52.014;8.540;2022-09-13T07:01:07;8.33;;;3.70;;
2187;SDS011;1100;52.014;8.540;2022-09-13T07:03:39;9.25;;;3.42;;
2187;SDS011;1100;52.014;8.540;2022-09-13T07:06:11;6.47;;;3.47;;
2187;SDS011;1100;52.014;8.540;2022-09-13T07:08:37;7.45;;;3.38;;
2187;SDS011;1100;52.014;8.540;2022-09-13T07:11:03;7.50;;;3.42;;
2187;SDS011;1100;52.014;8.540;2022-09-13T07:13:28;7.83;;;3.73;;
2187;SDS011;1100;52.014;8.540;2022-09-13T07:15:54;9.87;;;3.80;;
2187;SDS011;1100;52.014;8.540;2022-09-13T07:18:22;11.50;;;4.03;;
2187;SDS011;1100;52.014;8.540;2022-09-13T07:20:47;8.10;;;3.65;;
2187;SDS011;1100;52.014;8.540;2022-09-13T07:23:13;7.37;;;3.53;;
2187;SDS011;1100;52.014;8.540;2022-09-13T07:25:38;8.90;;;3.80;;
2187;SDS011;1100;52.014;8.540;2022-09-13T07:28:03;9.67;;;4.30;;
2187;SDS011;1100;52.014;8.540;2022-09-13T07:30:28;9.10;;;3.70;;
2187;SDS011;1100;52.014;8.540;2022-09-13T07:32:54;7.13;;;3.93;;
2187;SDS011;1100;52.014;8.540;2022-09-13T07:35:19;8.77;;;3.90;;
2187;SDS011;1100;52.014;8.540;2022-09-13T07:37:45;8.98;;;4.50;;
2187;SDS011;1100;52.014;8.540;2022-09-13T07:40:10;10.27;;;4.80;;
2187;SDS011;1100;52.014;8.540;2022-09-13T07:42:39;10.00;;;4.20;;
2187;SDS011;1100;52.014;8.540;2022-09-13T07:45:04;10.77;;;4.27;;
2187;SDS011;1100;52.014;8.540;2022-09-13T07:47:33;8.57;;;4.38;;
2187;SDS011;1100;52.014;8.540;2022-09-13T07:49:58;11.10;;;3.92;;
2187;SDS011;1100;52.014;8.540;2022-09-13T07:52:24;8.17;;;4.00;;
2187;SDS011;1100;52.014;8.540;2022-09-13T07:54:49;9.30;;;4.43;;
2187;SDS011;1100;52.014;8.540;2022-09-13T07:57:14;8.23;;;4.17;;
2187;SDS011;1100;52.014;8.540;2022-09-13T07:59:40;11.97;;;4.47;;
2187;SDS011;1100;52.014;8.540;2022-09-13T08:02:05;11.70;;;4.17;;
2187;SDS011;1100;52.014;8.540;2022-09-13T08:04:33;10.02;;;4.28;;
2187;SDS011;1100;52.014;8.540;2022-09-13T08:06:58;11.17;;;4.90;;
2187;SDS011;1100;52.014;8.540;2022-09-13T08:09:24;11.10;;;4.65;;
2187;SDS011;1100;52.014;8.540;2022-09-13T08:11:50;11.23;;;5.10;;
2187;SDS011;1100;52.014;8.540;2022-09-13T08:14:17;10.23;;;5.07;;
2187;SDS011;1100;52.014;8.540;2022-09-13T08:16:44;10.27;;;5.30;;
2187;SDS011;1100;52.014;8.540;2022-09-13T08:19:11;10.85;;;5.60;;
2187;SDS011;1100;52.014;8.540;2022-09-13T08:21:39;9.50;;;5.05;;
2187;SDS011;1100;52.014;8.540;2022-09-13T08:24:06;9.82;;;5.03;;
2187;SDS011;1100;52.014;8.540;2022-09-13T08:26:37;12.23;;;5.83;;
2187;SDS011;1100;52.014;8.540;2022-09-13T08:29:04;11.38;;;5.25;;
2187;SDS011;1100;52.014;8.540;2022-09-13T08:31:30;12.30;;;5.82;;
2187;SDS011;1100;52.014;8.540;2022-09-13T08:33:56;13.15;;;5.90;;
2187;SDS011;1100;52.014;8.540;2022-09-13T08:36:22;11.77;;;6.03;;
2187;SDS011;1100;52.014;8.540;2022-09-13T08:38:52;11.18;;;5.72;;
2187;SDS011;1100;52.014;8.540;2022-09-13T08:43:48;13.33;;;6.67;;
2187;SDS011;1100;52.014;8.540;2022-09-13T08:46:23;12.63;;;6.40;;
2187;SDS011;1100;52.014;8.540;2022-09-13T08:48:54;14.47;;;6.23;;
2187;SDS011;1100;52.014;8.540;2022-09-13T08:51:32;12.77;;;6.63;;
2187;SDS011;1100;52.014;8.540;2022-09-13T08:54:04;12.20;;;6.13;;
2187;SDS011;1100;52.014;8.540;2022-09-13T08:56:40;13.23;;;6.10;;
2187;SDS011;1100;52.014;8.540;2022-09-13T09:02:17;13.70;;;6.67;;
2187;SDS011;1100;52.014;8.540;2022-09-13T09:07:26;14.10;;;6.60;;
2187;SDS011;1100;52.014;8.540;2022-09-13T09:10:02;11.40;;;6.40;;
2187;SDS011;1100;52.014;8.540;2022-09-13T09:16:10;13.87;;;7.43;;
2187;SDS011;1100;52.014;8.540;2022-09-13T09:18:21;13.63;;;6.60;;
2187;SDS011;1100;52.014;8.540;2022-09-13T09:20:52;15.50;;;7.50;;
2187;SDS011;1100;52.014;8.540;2022-09-13T09:28:37;12.70;;;7.00;;
2187;SDS011;1100;52.014;8.540;2022-09-13T09:31:04;13.80;;;6.87;;
2187;SDS011;1100;52.014;8.540;2022-09-13T09:39:13;13.80;;;7.47;;
2187;SDS011;1100;52.014;8.540;2022-09-13T09:41:40;12.27;;;6.53;;
2187;SDS011;1100;52.014;8.540;2022-09-13T09:46:34;14.40;;;7.80;;
2187;SDS011;1100;52.014;8.540;2022-09-13T09:49:11;14.63;;;6.73;;
2187;SDS011;1100;52.014;8.540;2022-09-13T09:52:00;11.55;;;6.07;;
2187;SDS011;1100;52.014;8.540;2022-09-13T09:54:31;17.90;;;6.55;;
2187;SDS011;1100;52.014;8.540;2022-09-13T09:56:59;13.25;;;6.65;;
2187;SDS011;1100;52.014;8.540;2022-09-13T09:59:29;12.73;;;6.63;;
2187;SDS011;1100;52.014;8.540;2022-09-13T10:01:56;14.50;;;6.83;;
2187;SDS011;1100;52.014;8.540;2022-09-13T10:04:28;11.50;;;6.22;;
2187;SDS011;1100;52.014;8.540;2022-09-13T10:07:08;14.70;;;6.35;;
2187;SDS011;1100;52.014;8.540;2022-09-13T10:09:51;13.73;;;6.60;;
2187;SDS011;1100;52.014;8.540;2022-09-13T10:12:29;12.60;;;6.13;;
2187;SDS011;1100;52.014;8.540;2022-09-13T10:15:31;15.23;;;6.18;;
2187;SDS011;1100;52.014;8.540;2022-09-13T10:18:15;14.13;;;6.30;;
2187;SDS011;1100;52.014;8.540;2022-09-13T10:20:42;12.85;;;5.80;;
2187;SDS011;1100;52.014;8.540;2022-09-13T10:23:36;12.07;;;6.15;;
2187;SDS011;1100;52.014;8.540;2022-09-13T10:26:09;10.93;;;5.27;;
2187;SDS011;1100;52.014;8.540;2022-09-13T10:31:40;11.38;;;5.35;;
2187;SDS011;1100;52.014;8.540;2022-09-13T10:34:18;10.50;;;5.32;;
2187;SDS011;1100;52.014;8.540;2022-09-13T10:37:05;10.60;;;5.03;;
2187;SDS011;1100;52.014;8.540;2022-09-13T10:39:54;10.70;;;4.67;;
2187;SDS011;1100;52.014;8.540;2022-09-13T10:42:30;9.18;;;4.82;;
2187;SDS011;1100;52.014;8.540;2022-09-13T10:44:56;10.70;;;5.03;;
2187;SDS011;1100;52.014;8.540;2022-09-13T10:52:48;9.35;;;4.70;;
2187;SDS011;1100;52.014;8.540;2022-09-13T10:57:42;9.40;;;5.05;;
2187;SDS011;1100;52.014;8.540;2022-09-13T11:00:10;9.67;;;5.20;;
2187;SDS011;1100;52.014;8.540;2022-09-13T11:05:25;12.88;;;6.00;;
2187;SDS011;1100;52.014;8.540;2022-09-13T11:13:46;12.60;;;5.30;;
2187;SDS011;1100;52.014;8.540;2022-09-13T11:16:22;13.40;;;5.50;;
2187;SDS011;1100;52.014;8.540;2022-09-13T11:29:33;10.45;;;5.53;;
2187;SDS011;1100;52.014;8.540;2022-09-13T11:54:53;12.03;;;6.60;;
2187;SDS011;1100;52.014;8.540;2022-09-13T11:57:31;10.52;;;5.78;;
2187;SDS011;1100;52.014;8.540;2022-09-13T12:00:00;10.40;;;6.25;;
2187;SDS011;1100;52.014;8.540;2022-09-13T12:02:51;12.23;;;6.25;;
2187;SDS011;1100;52.014;8.540;2022-09-13T12:05:25;12.82;;;5.85;;
2187;SDS011;1100;52.014;8.540;2022-09-13T12:08:09;11.90;;;6.20;;
2187;SDS011;1100;52.014;8.540;2022-09-13T12:13:17;13.88;;;6.93;;
2187;SDS011;1100;52.014;8.540;2022-09-13T12:15:47;13.88;;;7.95;;
2187;SDS011;1100;52.014;8.540;2022-09-13T12:20:57;13.20;;;7.50;;
2187;SDS011;1100;52.014;8.540;2022-09-13T12:23:30;13.32;;;7.68;;
2187;SDS011;1100;52.014;8.540;2022-09-13T12:26:03;16.00;;;8.43;;
2187;SDS011;1100;52.014;8.540;2022-09-13T12:28:45;12.43;;;7.53;;
2187;SDS011;1100;52.014;8.540;2022-09-13T12:31:16;13.07;;;7.45;;
2187;SDS011;1100;52.014;8.540;2022-09-13T12:33:45;16.23;;;6.97;;
2187;SDS011;1100;52.014;8.540;2022-09-13T12:41:51;13.15;;;6.80;;
2187;SDS011;1100;52.014;8.540;2022-09-13T12:44:59;13.20;;;7.18;;
2187;SDS011;1100;52.014;8.540;2022-09-13T12:47:52;14.43;;;7.23;;
2187;SDS011;1100;52.014;8.540;2022-09-13T12:53:14;14.63;;;6.70;;
2187;SDS011;1100;52.014;8.540;2022-09-13T13:03:44;10.40;;;5.70;;
2187;SDS011;1100;52.014;8.540;2022-09-13T13:09:38;12.80;;;6.18;;
2187;SDS011;1100;52.014;8.540;2022-09-13T13:12:03;10.73;;;5.22;;
2187;SDS011;1100;52.014;8.540;2022-09-13T13:23:25;14.20;;;6.43;;
2187;SDS011;1100;52.014;8.540;2022-09-13T13:36:23;9.13;;;4.97;;
2187;SDS011;1100;52.014;8.540;2022-09-13T14:00:10;8.10;;;3.63;;
2187;SDS011;1100;52.014;8.540;2022-09-13T14:11:13;8.02;;;3.20;;
2187;SDS011;1100;52.014;8.540;2022-09-13T14:16:38;8.45;;;3.33;;
2187;SDS011;1100;52.014;8.540;2022-09-13T14:19:26;5.55;;;2.53;;
2187;SDS011;1100;52.014;8.540;2022-09-13T14:24:40;8.27;;;3.00;;
2187;SDS011;1100;52.014;8.540;2022-09-13T14:27:16;9.17;;;3.50;;
2187;SDS011;1100;52.014;8.540;2022-09-13T14:29:45;6.97;;;3.13;;
2187;SDS011;1100;52.014;8.540;2022-09-13T14:32:12;5.90;;;2.90;;
2187;SDS011;1100;52.014;8.540;2022-09-13T14:34:49;10.65;;;2.80;;
2187;SDS011;1100;52.014;8.540;2022-09-13T14:37:19;6.38;;;2.45;;
2187;SDS011;1100;52.014;8.540;2022-09-13T14:42:24;6.95;;;2.78;;
2187;SDS011;1100;52.014;8.540;2022-09-13T14:44:49;6.67;;;2.90;;
2187;SDS011;1100;52.014;8.540;2022-09-13T14:49:48;6.95;;;2.85;;
2187;SDS011;1100;52.014;8.540;2022-09-13T14:52:23;6.07;;;2.83;;
2187;SDS011;1100;52.014;8.540;2022-09-13T14:54:54;6.32;;;2.83;;
2187;SDS011;1100;52.014;8.540;2022-09-13T14:57:25;7.70;;;2.90;;
2187;SDS011;1100;52.014;8.540;2022-09-13T14:59:55;6.18;;;2.58;;
2187;SDS011;1100;52.014;8.540;2022-09-13T15:02:30;6.25;;;2.50;;
2187;SDS011;1100;52.014;8.540;2022-09-13T15:04:59;5.00;;;2.20;;
2187;SDS011;1100;52.014;8.540;2022-09-13T15:07:33;5.68;;;2.30;;
2187;SDS011;1100;52.014;8.540;2022-09-13T15:10:08;4.20;;;1.70;;
2187;SDS011;1100;52.014;8.540;2022-09-13T15:12:37;5.72;;;2.20;;
2187;SDS011;1100;52.014;8.540;2022-09-13T15:15:59;5.82;;;1.75;;
2187;SDS011;1100;52.014;8.540;2022-09-13T15:20:45;6.90;;;1.90;;
2187;SDS011;1100;52.014;8.540;2022-09-13T15:26:18;4.13;;;1.50;;
2187;SDS011;1100;52.014;8.540;2022-09-13T15:28:52;6.25;;;1.40;;
2187;SDS011;1100;52.014;8.540;2022-09-13T15:31:27;4.80;;;1.50;;
2187;SDS011;1100;52.014;8.540;2022-09-13T15:36:41;3.53;;;1.00;;
2187;SDS011;1100;52.014;8.540;2022-09-13T15:41:36;5.37;;;1.30;;
2187;SDS011;1100;52.014;8.540;2022-09-13T15:44:14;3.53;;;1.10;;
2187;SDS011;1100;52.014;8.540;2022-09-13T15:46:46;3.77;;;1.20;;
2187;SDS011;1100;52.014;8.540;2022-09-13T15:49:16;5.87;;;1.10;;
2187;SDS011;1100;52.014;8.540;2022-09-13T15:51:44;4.15;;;1.20;;
2187;SDS011;1100;52.014;8.540;2022-09-13T15:54:11;4.35;;;1.42;;
2187;SDS011;1100;52.014;8.540;2022-09-13T15:56:37;4.00;;;1.20;;
2187;SDS011;1100;52.014;8.540;2022-09-13T15:59:07;4.60;;;1.20;;
2187;SDS011;1100;52.014;8.540;2022-09-13T16:01:36;3.13;;;0.90;;
2187;SDS011;1100;52.014;8.540;2022-09-13T16:04:02;4.30;;;1.20;;
2187;SDS011;1100;52.014;8.540;2022-09-13T16:06:29;3.22;;;1.20;;
2187;SDS011;1100;52.014;8.540;2022-09-13T16:08:54;2.83;;;0.80;;
2187;SDS011;1100;52.014;8.540;2022-09-13T16:11:19;4.27;;;1.10;;
2187;SDS011;1100;52.014;8.540;2022-09-13T16:13:45;3.53;;;0.80;;
2187;SDS011;1100;52.014;8.540;2022-09-13T16:16:13;2.73;;;0.70;;
2187;SDS011;1100;52.014;8.540;2022-09-13T16:18:38;3.90;;;0.60;;
2187;SDS011;1100;52.014;8.540;2022-09-13T16:21:04;4.23;;;0.90;;
2187;SDS011;1100;52.014;8.540;2022-09-13T16:23:29;3.08;;;0.70;;
2187;SDS011;1100;52.014;8.540;2022-09-13T16:25:55;5.13;;;0.83;;
2187;SDS011;1100;52.014;8.540;2022-09-13T16:28:23;3.85;;;0.90;;
2187;SDS011;1100;52.014;8.540;2022-09-13T16:30:50;2.97;;;0.63;;
2187;SDS011;1100;52.014;8.540;2022-09-13T16:33:16;3.30;;;0.80;;
2187;SDS011;1100;52.014;8.540;2022-09-13T16:35:41;3.63;;;0.70;;
2187;SDS011;1100;52.014;8.540;2022-09-13T16:38:08;4.70;;;0.60;;
2187;SDS011;1100;52.014;8.540;2022-09-13T16:40:34;2.70;;;0.63;;
2187;SDS011;1100;52.014;8.540;2022-09-13T16:42:59;3.90;;;0.93;;
2187;SDS011;1100;52.014;8.540;2022-09-13T16:45:24;3.60;;;1.00;;
2187;SDS011;1100;52.014;8.540;2022-09-13T16:47:50;3.13;;;0.80;;
2187;SDS011;1100;52.014;8.540;2022-09-13T16:50:15;4.40;;;1.17;;
2187;SDS011;1100;52.014;8.540;2022-09-13T16:52:41;4.23;;;0.80;;
2187;SDS011;1100;52.014;8.540;2022-09-13T16:55:06;2.72;;;0.70;;
2187;SDS011;1100;52.014;8.540;2022-09-13T16:57:32;2.20;;;0.67;;
2187;SDS011;1100;52.014;8.540;2022-09-13T16:59:58;3.47;;;0.95;;
2187;SDS011;1100;52.014;8.540;2022-09-13T17:02:26;3.17;;;0.73;;
2187;SDS011;1100;52.014;8.540;2022-09-13T17:04:52;3.28;;;0.73;;
2187;SDS011;1100;52.014;8.540;2022-09-13T17:07:17;3.27;;;0.90;;
2187;SDS011;1100;52.014;8.540;2022-09-13T17:09:43;3.83;;;0.70;;
2187;SDS011;1100;52.014;8.540;2022-09-13T17:12:09;4.13;;;0.90;;
2187;SDS011;1100;52.014;8.540;2022-09-13T17:14:36;4.03;;;1.02;;
2187;SDS011;1100;52.014;8.540;2022-09-13T17:17:03;2.47;;;0.82;;
2187;SDS011;1100;52.014;8.540;2022-09-13T17:19:30;2.93;;;1.20;;
2187;SDS011;1100;52.014;8.540;2022-09-13T17:22:00;4.13;;;1.30;;
2187;SDS011;1100;52.014;8.540;2022-09-13T17:24:28;3.40;;;1.00;;
2187;SDS011;1100;52.014;8.540;2022-09-13T17:26:55;4.15;;;0.98;;
2187;SDS011;1100;52.014;8.540;2022-09-13T17:29:21;4.33;;;0.90;;
2187;SDS011;1100;52.014;8.540;2022-09-13T17:31:46;3.47;;;1.02;;
2187;SDS011;1100;52.014;8.540;2022-09-13T17:34:12;4.50;;;1.00;;
2187;SDS011;1100;52.014;8.540;2022-09-13T17:36:38;4.53;;;1.03;;
2187;SDS011;1100;52.014;8.540;2022-09-13T17:39:04;4.77;;;1.20;;
2187;SDS011;1100;52.014;8.540;2022-09-13T17:41:30;5.85;;;1.50;;
2187;SDS011;1100;52.014;8.540;2022-09-13T17:43:56;5.33;;;1.17;;
2187;SDS011;1100;52.014;8.540;2022-09-13T17:46:24;4.47;;;1.13;;
2187;SDS011;1100;52.014;8.540;2022-09-13T17:48:52;4.10;;;1.10;;
2187;SDS011;1100;52.014;8.540;2022-09-13T17:51:19;4.57;;;1.42;;
2187;SDS011;1100;52.014;8.540;2022-09-13T17:53:50;5.03;;;1.20;;
2187;SDS011;1100;52.014;8.540;2022-09-13T17:56:17;4.85;;;1.00;;
2187;SDS011;1100;52.014;8.540;2022-09-13T17:58:45;4.57;;;1.80;;
2187;SDS011;1100;52.014;8.540;2022-09-13T18:01:11;6.17;;;1.20;;
2187;SDS011;1100;52.014;8.540;2022-09-13T18:03:37;5.03;;;1.50;;
2187;SDS011;1100;52.014;8.540;2022-09-13T18:06:03;5.93;;;1.27;;
2187;SDS011;1100;52.014;8.540;2022-09-13T18:08:30;5.80;;;1.58;;
2187;SDS011;1100;52.014;8.540;2022-09-13T18:11:04;4.53;;;1.47;;
2187;SDS011;1100;52.014;8.540;2022-09-13T18:13:38;3.88;;;1.23;;
2187;SDS011;1100;52.014;8.540;2022-09-13T18:16:05;6.93;;;1.40;;
2187;SDS011;1100;52.014;8.540;2022-09-13T18:18:33;5.93;;;1.48;;
2187;SDS011;1100;52.014;8.540;2022-09-13T18:21:00;7.22;;;1.50;;
2187;SDS011;1100;52.014;8.540;2022-09-13T18:23:25;5.27;;;1.27;;
2187;SDS011;1100;52.014;8.540;2022-09-13T18:25:59;4.75;;;1.60;;
2187;SDS011;1100;52.014;8.540;2022-09-13T18:28:27;5.03;;;1.20;;
2187;SDS011;1100;52.014;8.540;2022-09-13T18:30:53;4.03;;;1.30;;
2187;SDS011;1100;52.014;8.540;2022-09-13T18:33:21;4.90;;;1.13;;
2187;SDS011;1100;52.014;8.540;2022-09-13T18:36:20;4.07;;;1.20;;
2187;SDS011;1100;52.014;8.540;2022-09-13T18:38:44;4.95;;;1.25;;
2187;SDS011;1100;52.014;8.540;2022-09-13T18:43:45;6.65;;;1.80;;
2187;SDS011;1100;52.014;8.540;2022-09-13T18:46:13;3.40;;;1.23;;
2187;SDS011;1100;52.014;8.540;2022-09-13T18:48:40;4.95;;;1.40;;
2187;SDS011;1100;52.014;8.540;2022-09-13T18:51:08;4.25;;;1.40;;
2187;SDS011;1100;52.014;8.540;2022-09-13T18:53:35;6.13;;;1.05;;
2187;SDS011;1100;52.014;8.540;2022-09-13T18:56:02;3.90;;;1.13;;
2187;SDS011;1100;52.014;8.540;2022-09-13T18:58:29;4.40;;;1.40;;
2187;SDS011;1100;52.014;8.540;2022-09-13T19:00:59;6.60;;;1.50;;
2187;SDS011;1100;52.014;8.540;2022-09-13T19:03:30;4.57;;;1.13;;
2187;SDS011;1100;52.014;8.540;2022-09-13T19:06:08;5.37;;;1.30;;
2187;SDS011;1100;52.014;8.540;2022-09-13T19:08:55;6.03;;;1.27;;
2187;SDS011;1100;52.014;8.540;2022-09-13T19:11:22;4.65;;;1.38;;
2187;SDS011;1100;52.014;8.540;2022-09-13T19:13:48;5.82;;;1.20;;
2187;SDS011;1100;52.014;8.540;2022-09-13T19:16:15;6.80;;;1.50;;
2187;SDS011;1100;52.014;8.540;2022-09-13T19:18:43;4.40;;;1.17;;
2187;SDS011;1100;52.014;8.540;2022-09-13T19:21:13;6.25;;;1.80;;